<?xml version="1.0" encoding="UTF-8"?><gpx xmlns="http://www.topografix.com/GPX/1/1"  creator="TraceDeTrail http://www.tracedetrail.fr" version="1.1" xmlns:xsi="http://www.w3.org/2001/XMLSchema-instance" xsi:schemaLocation="http://www.topografix.com/GPX/1/1 http://www.topografix.com/GPX/1/1/gpx.xsd "><metadata><name>Liaison piétonne Recoin 1650 - Roche Béranger 1750</name><link href="http://tracedetrail.fr/fr/trace/trace/119935"><text>methode de calcul : bdalti </text></link></metadata><trk><name>Liaison piétonne Recoin 1650 - Roche Béranger 1750 sur TraceDeTrail.fr</name><trkseg><trkpt lat="45.11158" lon="5.87456"><ele>1712</ele><time>2000-01-01T02:35:30.000Z</time></trkpt><trkpt lat="45.11167" lon="5.87411"><ele>1709</ele><time>2000-01-01T02:35:40.000Z</time></trkpt><trkpt lat="45.112" lon="5.87415"><ele>1707</ele><time>2000-01-01T02:35:50.000Z</time></trkpt><trkpt lat="45.11213" lon="5.87387"><ele>1704</ele><time>2000-01-01T02:36:00.000Z</time></trkpt><trkpt lat="45.11247" lon="5.87398"><ele>1701</ele><time>2000-01-01T02:36:10.000Z</time></trkpt><trkpt lat="45.11272" lon="5.87394"><ele>1699</ele><time>2000-01-01T02:36:20.000Z</time></trkpt><trkpt lat="45.11299" lon="5.87389"><ele>1696</ele><time>2000-01-01T02:36:30.000Z</time></trkpt><trkpt lat="45.11343" lon="5.87389"><ele>1692</ele><time>2000-01-01T02:36:40.000Z</time></trkpt><trkpt lat="45.11382" lon="5.87372"><ele>1690</ele><time>2000-01-01T02:36:50.000Z</time></trkpt><trkpt lat="45.11414" lon="5.87344"><ele>1684</ele><time>2000-01-01T02:37:00.000Z</time></trkpt><trkpt lat="45.11434" lon="5.87323"><ele>1682</ele><time>2000-01-01T02:37:10.000Z</time></trkpt><trkpt lat="45.11456" lon="5.87299"><ele>1681</ele><time>2000-01-01T02:37:20.000Z</time></trkpt><trkpt lat="45.115" lon="5.87278"><ele>1680</ele><time>2000-01-01T02:37:30.000Z</time></trkpt><trkpt lat="45.11512" lon="5.8722"><ele>1666</ele><time>2000-01-01T02:37:40.000Z</time></trkpt><trkpt lat="45.11523" lon="5.87185"><ele>1664</ele><time>2000-01-01T02:37:50.000Z</time></trkpt><trkpt lat="45.11552" lon="5.87172"><ele>1662</ele><time>2000-01-01T02:38:00.000Z</time></trkpt><trkpt lat="45.11582" lon="5.87164"><ele>1664</ele><time>2000-01-01T02:38:10.000Z</time></trkpt><trkpt lat="45.11604" lon="5.87192"><ele>1666</ele><time>2000-01-01T02:38:20.000Z</time></trkpt><trkpt lat="45.11638" lon="5.87237"><ele>1667</ele><time>2000-01-01T02:38:30.000Z</time></trkpt><trkpt lat="45.11663" lon="5.87245"><ele>1665</ele><time>2000-01-01T02:38:40.000Z</time></trkpt><trkpt lat="45.11691" lon="5.87254"><ele>1663</ele><time>2000-01-01T02:38:50.000Z</time></trkpt><trkpt lat="45.11714" lon="5.8728"><ele>1660</ele><time>2000-01-01T02:39:00.000Z</time></trkpt><trkpt lat="45.1175" lon="5.87321"><ele>1659</ele><time>2000-01-01T02:39:10.000Z</time></trkpt><trkpt lat="45.11762" lon="5.87351"><ele>1659</ele><time>2000-01-01T02:39:20.000Z</time></trkpt><trkpt lat="45.11774" lon="5.87385"><ele>1661</ele><time>2000-01-01T02:39:30.000Z</time></trkpt><trkpt lat="45.11783" lon="5.87413"><ele>1659</ele><time>2000-01-01T02:39:40.000Z</time></trkpt><trkpt lat="45.11811" lon="5.87424"><ele>1657</ele><time>2000-01-01T02:39:50.000Z</time></trkpt><trkpt lat="45.1185" lon="5.87456"><ele>1658</ele><time>2000-01-01T02:40:00.000Z</time></trkpt><trkpt lat="45.1188" lon="5.87492"><ele>1657</ele><time>2000-01-01T02:40:10.000Z</time></trkpt><trkpt lat="45.11904" lon="5.87503"><ele>1657</ele><time>2000-01-01T02:40:20.000Z</time></trkpt><trkpt lat="45.1193" lon="5.87516"><ele>1652</ele><time>2000-01-01T02:40:30.000Z</time></trkpt><trkpt lat="45.11971" lon="5.87548"><ele>1652</ele><time>2000-01-01T02:40:40.000Z</time></trkpt><trkpt lat="45.12015" lon="5.87537"><ele>1651</ele><time>2000-01-01T02:40:50.000Z</time></trkpt><trkpt lat="45.12042" lon="5.87514"><ele>1645</ele><time>2000-01-01T02:41:00.000Z</time></trkpt><trkpt lat="45.12071" lon="5.87522"><ele>1645</ele><time>2000-01-01T02:41:10.000Z</time></trkpt><trkpt lat="45.12098" lon="5.87554"><ele>1645</ele><time>2000-01-01T02:41:20.000Z</time></trkpt><trkpt lat="45.12118" lon="5.87575"><ele>1643</ele><time>2000-01-01T02:41:30.000Z</time></trkpt><trkpt lat="45.12138" lon="5.87597"><ele>1641</ele><time>2000-01-01T02:41:40.000Z</time></trkpt><trkpt lat="45.12168" lon="5.87623"><ele>1637</ele><time>2000-01-01T02:41:50.000Z</time></trkpt><trkpt lat="45.12191" lon="5.87651"><ele>1633</ele><time>2000-01-01T02:42:00.000Z</time></trkpt><trkpt lat="45.12221" lon="5.87677"><ele>1632</ele><time>2000-01-01T02:42:10.000Z</time></trkpt><trkpt lat="45.12248" lon="5.87702"><ele>1632</ele><time>2000-01-01T02:42:20.000Z</time></trkpt><trkpt lat="45.12286" lon="5.87711"><ele>1631</ele><time>2000-01-01T02:42:30.000Z</time></trkpt><trkpt lat="45.12316" lon="5.87717"><ele>1630</ele><time>2000-01-01T02:42:40.000Z</time></trkpt><trkpt lat="45.12339" lon="5.87707"><ele>1629</ele><time>2000-01-01T02:42:50.000Z</time></trkpt></trkseg></trk></gpx>